sensor_id;sensor_type;location;lat;lon;timestamp;pressure;altitude;pressure_sealevel;temperature;humidity
47530;BME280;33272;51.922;7.730;2023-04-26T00:01:59;143244.44;;;2.98;100.00
47530;BME280;33272;51.922;7.730;2023-04-26T00:04:26;143235.63;;;2.94;100.00
47530;BME280;33272;51.922;7.730;2023-04-26T00:06:54;143225.59;;;2.90;100.00
47530;BME280;33272;51.922;7.730;2023-04-26T00:09:21;143212.97;;;2.85;100.00
47530;BME280;33272;51.922;7.730;2023-04-26T00:11:48;143200.38;;;2.80;100.00
47530;BME280;33272;51.922;7.730;2023-04-26T00:14:15;143189.06;;;2.75;100.00
47530;BME280;33272;51.922;7.730;2023-04-26T00:16:44;143180.25;;;2.72;100.00
47530;BME280;33272;51.922;7.730;2023-04-26T00:19:11;143184.00;;;2.73;100.00
47530;BME280;33272;51.922;7.730;2023-04-26T00:21:38;143187.81;;;2.75;100.00
47530;BME280;33272;51.922;7.730;2023-04-26T00:24:06;143192.81;;;2.77;100.00
47530;BME280;33272;51.922;7.730;2023-04-26T00:26:33;143189.06;;;2.75;100.00
47530;BME280;33272;51.922;7.730;2023-04-26T00:29:00;143190.31;;;2.76;100.00
47530;BME280;33272;51.922;7.730;2023-04-26T00:31:27;143186.56;;;2.74;100.00
47530;BME280;33272;51.922;7.730;2023-04-26T00:33:56;143187.81;;;2.75;100.00
47530;BME280;33272;51.922;7.730;2023-04-26T00:36:23;143184.00;;;2.73;100.00
47530;BME280;33272;51.922;7.730;2023-04-26T00:38:51;143180.25;;;2.72;100.00
47530;BME280;33272;51.922;7.730;2023-04-26T00:41:18;143173.97;;;2.69;100.00
47530;BME280;33272;51.922;7.730;2023-04-26T00:43:44;143167.66;;;2.67;100.00
47530;BME280;33272;51.922;7.730;2023-04-26T00:46:11;143171.44;;;2.68;100.00
47530;BME280;33272;51.922;7.730;2023-04-26T00:48:39;143170.16;;;2.68;100.00
47530;BME280;33272;51.922;7.730;2023-04-26T00:51:07;143167.66;;;2.67;100.00
47530;BME280;33272;51.922;7.730;2023-04-26T00:53:34;143162.59;;;2.65;100.00
47530;BME280;33272;51.922;7.730;2023-04-26T00:56:02;143167.66;;;2.67;100.00
47530;BME280;33272;51.922;7.730;2023-04-26T00:58:32;143155.09;;;2.62;100.00
47530;BME280;33272;51.922;7.730;2023-04-26T01:00:59;143142.50;;;2.57;100.00
47530;BME280;33272;51.922;7.730;2023-04-26T01:03:27;143128.63;;;2.51;100.00
47530;BME280;33272;51.922;7.730;2023-04-26T01:05:54;143116.03;;;2.46;100.00
47530;BME280;33272;51.922;7.730;2023-04-26T01:08:23;143104.72;;;2.41;100.00
47530;BME280;33272;51.922;7.730;2023-04-26T01:10:51;143097.19;;;2.38;100.00
47530;BME280;33272;51.922;7.730;2023-04-26T01:13:18;143087.13;;;2.34;100.00
47530;BME280;33272;51.922;7.730;2023-04-26T01:15:47;143078.31;;;2.30;100.00
47530;BME280;33272;51.922;7.730;2023-04-26T01:18:14;143065.72;;;2.25;100.00
47530;BME280;33272;51.922;7.730;2023-04-26T01:20:41;143059.44;;;2.23;100.00
47530;BME280;33272;51.922;7.730;2023-04-26T01:23:10;143059.44;;;2.23;100.00
47530;BME280;33272;51.922;7.730;2023-04-26T01:25:37;143053.13;;;2.20;100.00
47530;BME280;33272;51.922;7.730;2023-04-26T01:28:04;143048.13;;;2.18;100.00
47530;BME280;33272;51.922;7.730;2023-04-26T01:30:31;143044.31;;;2.17;100.00
47530;BME280;33272;51.922;7.730;2023-04-26T01:32:58;143044.31;;;2.17;100.00
47530;BME280;33272;51.922;7.730;2023-04-26T01:35:25;143041.81;;;2.16;100.00
47530;BME280;33272;51.922;7.730;2023-04-26T01:37:52;143036.78;;;2.14;100.00
47530;BME280;33272;51.922;7.730;2023-04-26T01:40:21;143026.72;;;2.09;100.00
47530;BME280;33272;51.922;7.730;2023-04-26T01:42:48;143019.19;;;2.06;100.00
47530;BME280;33272;51.922;7.730;2023-04-26T01:45:15;143016.69;;;2.05;100.00
47530;BME280;33272;51.922;7.730;2023-04-26T01:47:42;143019.19;;;2.06;100.00
47530;BME280;33272;51.922;7.730;2023-04-26T01:50:10;143019.19;;;2.06;100.00
47530;BME280;33272;51.922;7.730;2023-04-26T01:52:37;143014.13;;;2.04;100.00
47530;BME280;33272;51.922;7.730;2023-04-26T01:55:05;143011.63;;;2.03;100.00
47530;BME280;33272;51.922;7.730;2023-04-26T01:57:34;143005.34;;;2.01;100.00
47530;BME280;33272;51.922;7.730;2023-04-26T02:00:01;143000.34;;;1.99;100.00
47530;BME280;33272;51.922;7.730;2023-04-26T02:02:29;143000.34;;;1.99;100.00
47530;BME280;33272;51.922;7.730;2023-04-26T02:04:56;142995.28;;;1.97;100.00
47530;BME280;33272;51.922;7.730;2023-04-26T02:07:23;142994.03;;;1.96;100.00
47530;BME280;33272;51.922;7.730;2023-04-26T02:09:50;142991.47;;;1.95;100.00
47530;BME280;33272;51.922;7.730;2023-04-26T02:12:17;142988.97;;;1.94;100.00
47530;BME280;33272;51.922;7.730;2023-04-26T02:14:45;142994.03;;;1.96;100.00
47530;BME280;33272;51.922;7.730;2023-04-26T02:17:12;142987.72;;;1.94;100.00
47530;BME280;33272;51.922;7.730;2023-04-26T02:19:41;142986.47;;;1.93;100.00
47530;BME280;33272;51.922;7.730;2023-04-26T02:22:07;142981.44;;;1.91;100.00
47530;BME280;33272;51.922;7.730;2023-04-26T02:24:34;142976.38;;;1.89;100.00
47530;BME280;33272;51.922;7.730;2023-04-26T02:27:01;142976.38;;;1.89;100.00
47530;BME280;33272;51.922;7.730;2023-04-26T02:29:30;142976.38;;;1.89;100.00
47530;BME280;33272;51.922;7.730;2023-04-26T02:31:58;142971.38;;;1.87;100.00
47530;BME280;33272;51.922;7.730;2023-04-26T02:34:25;142978.94;;;1.90;100.00
47530;BME280;33272;51.922;7.730;2023-04-26T02:36:52;142982.69;;;1.92;100.00
47530;BME280;33272;51.922;7.730;2023-04-26T02:39:19;142977.69;;;1.90;100.00
47530;BME280;33272;51.922;7.730;2023-04-26T02:41:46;142978.94;;;1.90;100.00
47530;BME280;33272;51.922;7.730;2023-04-26T02:44:13;142975.13;;;1.89;100.00
47530;BME280;33272;51.922;7.730;2023-04-26T02:46:40;142968.88;;;1.86;100.00
47530;BME280;33272;51.922;7.730;2023-04-26T02:49:08;142968.88;;;1.86;100.00
47530;BME280;33272;51.922;7.730;2023-04-26T02:51:35;142968.88;;;1.86;100.00
47530;BME280;33272;51.922;7.730;2023-04-26T02:54:03;142975.13;;;1.89;100.00
47530;BME280;33272;51.922;7.730;2023-04-26T02:56:30;142966.34;;;1.85;100.00
47530;BME280;33272;51.922;7.730;2023-04-26T02:58:57;142968.88;;;1.86;100.00
47530;BME280;33272;51.922;7.730;2023-04-26T03:01:24;142967.59;;;1.85;100.00
47530;BME280;33272;51.922;7.730;2023-04-26T03:03:51;142962.59;;;1.83;100.00
47530;BME280;33272;51.922;7.730;2023-04-26T03:06:20;142961.34;;;1.83;100.00
47530;BME280;33272;51.922;7.730;2023-04-26T03:08:47;142951.25;;;1.79;100.00
47530;BME280;33272;51.922;7.730;2023-04-26T03:11:14;142943.69;;;1.76;100.00
47530;BME280;33272;51.922;7.730;2023-04-26T03:13:41;142928.59;;;1.70;100.00
47530;BME280;33272;51.922;7.730;2023-04-26T03:16:08;142917.31;;;1.65;100.00
47530;BME280;33272;51.922;7.730;2023-04-26T03:18:35;142905.97;;;1.60;100.00
47530;BME280;33272;51.922;7.730;2023-04-26T03:21:02;142898.41;;;1.57;100.00
47530;BME280;33272;51.922;7.730;2023-04-26T03:23:31;142892.16;;;1.55;100.00
47530;BME280;33272;51.922;7.730;2023-04-26T03:25:58;142882.09;;;1.51;100.00
47530;BME280;33272;51.922;7.730;2023-04-26T03:28:25;142875.84;;;1.48;100.00
47530;BME280;33272;51.922;7.730;2023-04-26T03:30:52;142872.03;;;1.47;100.00
47530;BME280;33272;51.922;7.730;2023-04-26T03:33:19;142867.00;;;1.45;100.00
47530;BME280;33272;51.922;7.730;2023-04-26T03:35:46;142862.00;;;1.43;100.00
47530;BME280;33272;51.922;7.730;2023-04-26T03:38:13;142859.44;;;1.42;100.00
47530;BME280;33272;51.922;7.730;2023-04-26T03:40:41;142855.69;;;1.40;100.00
47530;BME280;33272;51.922;7.730;2023-04-26T03:43:08;142848.16;;;1.37;100.00
47530;BME280;33272;51.922;7.730;2023-04-26T03:45:35;142838.09;;;1.33;100.00
47530;BME280;33272;51.922;7.730;2023-04-26T03:48:03;142838.09;;;1.33;100.00
47530;BME280;33272;51.922;7.730;2023-04-26T03:50:30;142835.56;;;1.32;100.00
47530;BME280;33272;51.922;7.730;2023-04-26T03:52:57;142829.31;;;1.29;100.00
47530;BME280;33272;51.922;7.730;2023-04-26T03:55:24;142825.53;;;1.28;100.00
47530;BME280;33272;51.922;7.730;2023-04-26T03:57:52;142819.22;;;1.25;100.00
47530;BME280;33272;51.922;7.730;2023-04-26T04:00:19;142810.44;;;1.22;100.00
47530;BME280;33272;51.922;7.730;2023-04-26T04:02:46;142807.94;;;1.21;100.00
47530;BME280;33272;51.922;7.730;2023-04-26T04:05:13;142812.94;;;1.23;100.00
47530;BME280;33272;51.922;7.730;2023-04-26T04:07:40;142816.72;;;1.24;100.00
47530;BME280;33272;51.922;7.730;2023-04-26T04:10:08;142826.78;;;1.28;100.00
47530;BME280;33272;51.922;7.730;2023-04-26T04:12:36;142830.56;;;1.30;100.00
47530;BME280;33272;51.922;7.730;2023-04-26T04:15:06;142838.09;;;1.33;100.00
47530;BME280;33272;51.922;7.730;2023-04-26T04:17:33;142841.84;;;1.34;100.00
47530;BME280;33272;51.922;7.730;2023-04-26T04:20:01;142848.16;;;1.37;100.00
47530;BME280;33272;51.922;7.730;2023-04-26T04:22:30;142855.69;;;1.40;100.00
47530;BME280;33272;51.922;7.730;2023-04-26T04:24:57;142873.28;;;1.47;100.00
47530;BME280;33272;51.922;7.730;2023-04-26T04:27:24;142889.63;;;1.54;100.00
47530;BME280;33272;51.922;7.730;2023-04-26T04:29:52;142911.00;;;1.62;100.00
47530;BME280;33272;51.922;7.730;2023-04-26T04:32:21;142928.59;;;1.70;100.00
47530;BME280;33272;51.922;7.730;2023-04-26T04:34:49;142948.75;;;1.78;100.00
47530;BME280;33272;51.922;7.730;2023-04-26T04:37:18;142957.53;;;1.81;100.00
47530;BME280;33272;51.922;7.730;2023-04-26T04:39:45;142968.88;;;1.86;100.00
47530;BME280;33272;51.922;7.730;2023-04-26T04:42:12;142983.94;;;1.92;100.00
47530;BME280;33272;51.922;7.730;2023-04-26T04:44:40;143005.34;;;2.01;100.00
47530;BME280;33272;51.922;7.730;2023-04-26T04:47:07;143031.78;;;2.12;100.00
47530;BME280;33272;51.922;7.730;2023-04-26T04:49:36;143069.47;;;2.27;100.00
47530;BME280;33272;51.922;7.730;2023-04-26T04:52:03;143097.19;;;2.38;100.00
47530;BME280;33272;51.922;7.730;2023-04-26T04:54:31;143111.03;;;2.44;100.00
47530;BME280;33272;51.922;7.730;2023-04-26T04:56:59;143111.03;;;2.44;100.00
47530;BME280;33272;51.922;7.730;2023-04-26T04:59:26;143123.59;;;2.49;100.00
47530;BME280;33272;51.922;7.730;2023-04-26T05:01:53;143128.63;;;2.51;100.00
47530;BME280;33272;51.922;7.730;2023-04-26T05:04:20;143133.69;;;2.53;100.00
47530;BME280;33272;51.922;7.730;2023-04-26T05:06:49;143148.78;;;2.59;100.00
47530;BME280;33272;51.922;7.730;2023-04-26T05:09:16;143171.44;;;2.68;100.00
47530;BME280;33272;51.922;7.730;2023-04-26T05:11:43;143196.63;;;2.78;100.00
47530;BME280;33272;51.922;7.730;2023-04-26T05:14:10;143230.59;;;2.92;100.00
47530;BME280;33272;51.922;7.730;2023-04-26T05:16:37;143267.13;;;3.07;100.00
47530;BME280;33272;51.922;7.730;2023-04-26T05:19:04;143308.66;;;3.24;100.00
47530;BME280;33272;51.922;7.730;2023-04-26T05:21:31;143356.50;;;3.43;100.00
47530;BME280;33272;51.922;7.730;2023-04-26T05:23:59;143410.66;;;3.65;100.00
47530;BME280;33272;51.922;7.730;2023-04-26T05:26:26;143471.16;;;3.90;100.00
47530;BME280;33272;51.922;7.730;2023-04-26T05:28:53;143527.84;;;4.13;100.00
47530;BME280;33272;51.922;7.730;2023-04-26T05:31:20;143618.63;;;4.50;100.00
47530;BME280;33272;51.922;7.730;2023-04-26T05:33:47;143650.16;;;4.62;100.00
47530;BME280;33272;51.922;7.730;2023-04-26T05:36:15;143674.09;;;4.72;100.00
47530;BME280;33272;51.922;7.730;2023-04-26T05:38:41;143669.09;;;4.70;100.00
47530;BME280;33272;51.922;7.730;2023-04-26T05:41:10;143652.69;;;4.63;100.00
47530;BME280;33272;51.922;7.730;2023-04-26T05:43:37;143675.34;;;4.73;100.00
47530;BME280;33272;51.922;7.730;2023-04-26T05:46:05;143686.72;;;4.77;100.00
47530;BME280;33272;51.922;7.730;2023-04-26T05:48:32;143691.78;;;4.79;100.00
47530;BME280;33272;51.922;7.730;2023-04-26T05:50:59;143685.47;;;4.77;100.00
47530;BME280;33272;51.922;7.730;2023-04-26T05:53:26;143671.59;;;4.71;100.00
47530;BME280;33272;51.922;7.730;2023-04-26T05:55:53;143657.72;;;4.65;100.00
47530;BME280;33272;51.922;7.730;2023-04-26T05:58:21;143686.72;;;4.77;100.00
47530;BME280;33272;51.922;7.730;2023-04-26T06:00:48;143713.19;;;4.88;100.00
47530;BME280;33272;51.922;7.730;2023-04-26T06:03:15;143735.91;;;4.97;100.00
47530;BME280;33272;51.922;7.730;2023-04-26T06:05:44;143766.19;;;5.09;100.00
47530;BME280;33272;51.922;7.730;2023-04-26T06:08:11;143768.69;;;5.10;100.00
47530;BME280;33272;51.922;7.730;2023-04-26T06:10:38;143778.81;;;5.15;100.00
47530;BME280;33272;51.922;7.730;2023-04-26T06:13:05;143781.31;;;5.16;100.00
47530;BME280;33272;51.922;7.730;2023-04-26T06:15:33;143761.13;;;5.07;100.00
47530;BME280;33272;51.922;7.730;2023-04-26T06:18:00;143742.22;;;5.00;100.00
47530;BME280;33272;51.922;7.730;2023-04-26T06:20:27;143747.28;;;5.02;100.00
47530;BME280;33272;51.922;7.730;2023-04-26T06:22:54;143723.31;;;4.92;100.00
47530;BME280;33272;51.922;7.730;2023-04-26T06:25:21;143724.56;;;4.93;100.00
47530;BME280;33272;51.922;7.730;2023-04-26T06:27:48;143749.78;;;5.03;100.00
47530;BME280;33272;51.922;7.730;2023-04-26T06:30:15;143797.72;;;5.22;100.00
47530;BME280;33272;51.922;7.730;2023-04-26T06:32:44;143881.00;;;5.56;100.00
47530;BME280;33272;51.922;7.730;2023-04-26T06:35:11;143902.47;;;5.65;100.00
47530;BME280;33272;51.922;7.730;2023-04-26T06:37:38;143951.69;;;5.85;100.00
47530;BME280;33272;51.922;7.730;2023-04-26T06:40:06;144018.66;;;6.12;100.00
47530;BME280;33272;51.922;7.730;2023-04-26T06:42:34;144052.72;;;6.25;100.00
47530;BME280;33272;51.922;7.730;2023-04-26T06:45:01;144083.03;;;6.38;100.00
47530;BME280;33272;51.922;7.730;2023-04-26T06:47:28;144123.44;;;6.54;100.00
47530;BME280;33272;51.922;7.730;2023-04-26T06:49:56;144175.25;;;6.75;100.00
47530;BME280;33272;51.922;7.730;2023-04-26T06:52:23;144232.09;;;6.98;100.00
47530;BME280;33272;51.922;7.730;2023-04-26T06:54:51;144272.50;;;7.14;100.00
47530;BME280;33272;51.922;7.730;2023-04-26T06:57:18;144309.19;;;7.29;100.00
47530;BME280;33272;51.922;7.730;2023-04-26T06:59:45;144348.34;;;7.45;100.00
47530;BME280;33272;51.922;7.730;2023-04-26T07:02:12;144338.25;;;7.41;100.00
47530;BME280;33272;51.922;7.730;2023-04-26T07:04:39;144354.69;;;7.48;100.00
47530;BME280;33272;51.922;7.730;2023-04-26T07:07:07;144383.72;;;7.59;100.00
47530;BME280;33272;51.922;7.730;2023-04-26T07:09:34;144406.50;;;7.69;100.00
47530;BME280;33272;51.922;7.730;2023-04-26T07:12:01;144385.03;;;7.60;100.00
47530;BME280;33272;51.922;7.730;2023-04-26T07:14:28;144428.00;;;7.77;100.00
47530;BME280;33272;51.922;7.730;2023-04-26T07:16:55;144386.28;;;7.60;100.00
47530;BME280;33272;51.922;7.730;2023-04-26T07:19:22;144387.53;;;7.61;100.00
47530;BME280;33272;51.922;7.730;2023-04-26T07:21:49;144416.63;;;7.73;100.00
47530;BME280;33272;51.922;7.730;2023-04-26T07:24:17;144422.91;;;7.75;100.00
47530;BME280;33272;51.922;7.730;2023-04-26T07:26:44;144438.09;;;7.81;100.00
47530;BME280;33272;51.922;7.730;2023-04-26T07:29:11;144465.94;;;7.93;100.00
47530;BME280;33272;51.922;7.730;2023-04-26T07:31:39;144492.47;;;8.03;100.00
47530;BME280;33272;51.922;7.730;2023-04-26T07:34:06;144505.13;;;8.08;100.00
47530;BME280;33272;51.922;7.730;2023-04-26T07:36:33;144517.81;;;8.13;100.00
47530;BME280;33272;51.922;7.730;2023-04-26T07:39:00;144540.53;;;8.23;100.00
47530;BME280;33272;51.922;7.730;2023-04-26T07:41:28;144597.53;;;8.46;100.00
47530;BME280;33272;51.922;7.730;2023-04-26T07:43:55;144668.38;;;8.74;100.00
47530;BME280;33272;51.922;7.730;2023-04-26T07:46:22;144702.53;;;8.88;100.00
47530;BME280;33272;51.922;7.730;2023-04-26T07:48:49;144806.38;;;9.30;100.00
47530;BME280;33272;51.922;7.730;2023-04-26T07:51:16;144854.47;;;9.49;100.00
47530;BME280;33272;51.922;7.730;2023-04-26T07:53:43;144892.47;;;9.65;98.90
47530;BME280;33272;51.922;7.730;2023-04-26T07:56:10;144886.13;;;9.62;100.00
47530;BME280;33272;51.922;7.730;2023-04-26T07:58:39;144843.06;;;9.45;97.41
47530;BME280;33272;51.922;7.730;2023-04-26T08:01:06;144829.13;;;9.39;100.00
47530;BME280;33272;51.922;7.730;2023-04-26T08:03:34;144710.13;;;8.91;98.85
47530;BME280;33272;51.922;7.730;2023-04-26T08:06:01;144725.31;;;8.97;99.28
47530;BME280;33272;51.922;7.730;2023-04-26T08:08:28;144735.44;;;9.01;97.10
47530;BME280;33272;51.922;7.730;2023-04-26T08:10:56;144741.78;;;9.04;97.17
47530;BME280;33272;51.922;7.730;2023-04-26T08:13:23;144778.50;;;9.19;98.53
47530;BME280;33272;51.922;7.730;2023-04-26T08:15:52;144786.09;;;9.22;93.49
47530;BME280;33272;51.922;7.730;2023-04-26T08:18:19;144805.06;;;9.29;96.06
47530;BME280;33272;51.922;7.730;2023-04-26T08:20:46;144821.53;;;9.36;96.67
47530;BME280;33272;51.922;7.730;2023-04-26T08:23:13;144843.06;;;9.45;95.40
47530;BME280;33272;51.922;7.730;2023-04-26T08:25:40;144916.53;;;9.74;96.27
47530;BME280;33272;51.922;7.730;2023-04-26T08:28:06;144921.56;;;9.77;95.00
47530;BME280;33272;51.922;7.730;2023-04-26T08:30:34;144895.00;;;9.66;95.43
47530;BME280;33272;51.922;7.730;2023-04-26T08:33:02;144907.69;;;9.71;95.63
47530;BME280;33272;51.922;7.730;2023-04-26T08:35:29;144902.59;;;9.69;95.22
47530;BME280;33272;51.922;7.730;2023-04-26T08:37:56;144903.84;;;9.69;95.06
47530;BME280;33272;51.922;7.730;2023-04-26T08:40:24;144949.47;;;9.88;95.14
47530;BME280;33272;51.922;7.730;2023-04-26T08:42:51;144889.91;;;9.64;90.71
47530;BME280;33272;51.922;7.730;2023-04-26T08:45:20;144919.06;;;9.75;92.17
47530;BME280;33272;51.922;7.730;2023-04-26T08:47:48;144925.41;;;9.78;91.93
47530;BME280;33272;51.922;7.730;2023-04-26T08:50:19;144930.44;;;9.80;84.71
47530;BME280;33272;51.922;7.730;2023-04-26T08:52:48;145016.56;;;10.15;91.27
47530;BME280;33272;51.922;7.730;2023-04-26T08:55:17;145049.59;;;10.28;90.43
47530;BME280;33272;51.922;7.730;2023-04-26T08:57:46;145039.38;;;10.24;87.51
47530;BME280;33272;51.922;7.730;2023-04-26T09:00:14;145011.53;;;10.13;87.23
47530;BME280;33272;51.922;7.730;2023-04-26T09:02:47;144969.69;;;9.96;87.12
47530;BME280;33272;51.922;7.730;2023-04-26T09:05:14;144973.53;;;9.97;86.74
47530;BME280;33272;51.922;7.730;2023-04-26T09:07:47;144907.69;;;9.71;89.25
47530;BME280;33272;51.922;7.730;2023-04-26T09:10:19;144919.06;;;9.75;89.99
47530;BME280;33272;51.922;7.730;2023-04-26T09:12:48;144892.47;;;9.65;89.93
47530;BME280;33272;51.922;7.730;2023-04-26T09:15:16;144939.34;;;9.84;86.21
47530;BME280;33272;51.922;7.730;2023-04-26T09:17:44;144974.78;;;9.98;89.06
47530;BME280;33272;51.922;7.730;2023-04-26T09:20:20;144998.84;;;10.08;83.26
47530;BME280;33272;51.922;7.730;2023-04-26T09:22:51;145021.66;;;10.17;85.71
47530;BME280;33272;51.922;7.730;2023-04-26T09:25:27;145038.13;;;10.24;81.61
47530;BME280;33272;51.922;7.730;2023-04-26T09:27:55;145054.63;;;10.30;83.10
47530;BME280;33272;51.922;7.730;2023-04-26T09:30:23;145066.06;;;10.35;82.03
47530;BME280;33272;51.922;7.730;2023-04-26T09:32:52;145040.69;;;10.25;80.75
47530;BME280;33272;51.922;7.730;2023-04-26T09:35:29;145028.00;;;10.19;76.43
47530;BME280;33272;51.922;7.730;2023-04-26T09:38:00;145043.19;;;10.26;79.10
47530;BME280;33272;51.922;7.730;2023-04-26T09:40:29;145093.91;;;10.46;81.81
47530;BME280;33272;51.922;7.730;2023-04-26T09:43:01;145156.03;;;10.71;75.51
47530;BME280;33272;51.922;7.730;2023-04-26T09:45:31;145221.97;;;10.98;76.55
47530;BME280;33272;51.922;7.730;2023-04-26T09:48:13;145242.22;;;11.06;72.19
47530;BME280;33272;51.922;7.730;2023-04-26T09:50:42;145305.63;;;11.31;78.00
47530;BME280;33272;51.922;7.730;2023-04-26T09:53:12;145325.94;;;11.40;75.87
47530;BME280;33272;51.922;7.730;2023-04-26T09:55:50;145361.47;;;11.54;76.94
47530;BME280;33272;51.922;7.730;2023-04-26T09:58:17;145416.03;;;11.76;76.29
47530;BME280;33272;51.922;7.730;2023-04-26T10:00:44;145443.97;;;11.87;75.10
47530;BME280;33272;51.922;7.730;2023-04-26T10:03:14;145450.31;;;11.90;73.98
47530;BME280;33272;51.922;7.730;2023-04-26T10:05:42;145478.19;;;12.01;72.56
47530;BME280;33272;51.922;7.730;2023-04-26T10:08:11;145470.59;;;11.98;72.59
47530;BME280;33272;51.922;7.730;2023-04-26T10:10:38;145414.72;;;11.75;71.07
47530;BME280;33272;51.922;7.730;2023-04-26T10:13:05;145371.63;;;11.58;70.92
47530;BME280;33272;51.922;7.730;2023-04-26T10:15:33;145351.28;;;11.50;71.21
47530;BME280;33272;51.922;7.730;2023-04-26T10:18:02;145318.31;;;11.36;70.66
47530;BME280;33272;51.922;7.730;2023-04-26T10:20:29;145315.81;;;11.35;72.01
47530;BME280;33272;51.922;7.730;2023-04-26T10:22:58;145273.94;;;11.19;70.06
47530;BME280;33272;51.922;7.730;2023-04-26T10:25:39;145162.38;;;10.74;66.02
47530;BME280;33272;51.922;7.730;2023-04-26T10:28:07;145191.53;;;10.85;72.04
47530;BME280;33272;51.922;7.730;2023-04-26T10:30:53;145204.19;;;10.90;69.67
47530;BME280;33272;51.922;7.730;2023-04-26T10:33:21;145244.81;;;11.07;72.03
47530;BME280;33272;51.922;7.730;2023-04-26T10:36:10;145234.63;;;11.03;67.08
47530;BME280;33272;51.922;7.730;2023-04-26T10:38:40;145304.38;;;11.31;71.99
47530;BME280;33272;51.922;7.730;2023-04-26T10:41:32;145284.09;;;11.23;63.97
47530;BME280;33272;51.922;7.730;2023-04-26T10:44:37;145323.41;;;11.39;66.65
47530;BME280;33272;51.922;7.730;2023-04-26T10:47:05;145358.91;;;11.53;70.26
47530;BME280;33272;51.922;7.730;2023-04-26T10:49:43;145371.63;;;11.58;65.91
47530;BME280;33272;51.922;7.730;2023-04-26T10:52:14;145369.09;;;11.57;68.17
47530;BME280;33272;51.922;7.730;2023-04-26T10:54:50;145426.16;;;11.80;67.78
47530;BME280;33272;51.922;7.730;2023-04-26T10:57:19;145438.88;;;11.85;64.54
47530;BME280;33272;51.922;7.730;2023-04-26T11:00:25;145468.06;;;11.97;61.59
47530;BME280;33272;51.922;7.730;2023-04-26T11:02:55;145535.34;;;12.24;66.44
47530;BME280;33272;51.922;7.730;2023-04-26T11:05:34;145497.25;;;12.09;60.75
47530;BME280;33272;51.922;7.730;2023-04-26T11:08:07;145614.03;;;12.56;67.53
47530;BME280;33272;51.922;7.730;2023-04-26T11:10:41;145531.50;;;12.22;65.08
47530;BME280;33272;51.922;7.730;2023-04-26T11:13:11;145518.84;;;12.17;63.98
47530;BME280;33272;51.922;7.730;2023-04-26T11:15:38;145581.03;;;12.42;66.38
47530;BME280;33272;51.922;7.730;2023-04-26T11:18:05;145517.53;;;12.17;65.77
47530;BME280;33272;51.922;7.730;2023-04-26T11:20:32;145554.38;;;12.32;64.68
47530;BME280;33272;51.922;7.730;2023-04-26T11:23:00;145517.53;;;12.17;61.42
47530;BME280;33272;51.922;7.730;2023-04-26T11:25:28;145531.50;;;12.22;63.13
47530;BME280;33272;51.922;7.730;2023-04-26T11:27:59;145498.53;;;12.09;63.95
47530;BME280;33272;51.922;7.730;2023-04-26T11:30:29;145553.09;;;12.31;63.85
47530;BME280;33272;51.922;7.730;2023-04-26T11:32:58;145523.91;;;12.19;61.97
47530;BME280;33272;51.922;7.730;2023-04-26T11:35:25;145487.13;;;12.04;62.24
47530;BME280;33272;51.922;7.730;2023-04-26T11:37:57;145504.88;;;12.12;61.50
47530;BME280;33272;51.922;7.730;2023-04-26T11:40:28;145454.09;;;11.91;57.26
47530;BME280;33272;51.922;7.730;2023-04-26T11:42:59;145488.38;;;12.05;59.14
47530;BME280;33272;51.922;7.730;2023-04-26T11:45:30;145432.50;;;11.82;60.93
47530;BME280;33272;51.922;7.730;2023-04-26T11:47:58;145460.44;;;11.94;61.33
47530;BME280;33272;51.922;7.730;2023-04-26T11:50:26;145455.41;;;11.92;61.33
47530;BME280;33272;51.922;7.730;2023-04-26T11:52:55;145525.16;;;12.20;62.24
47530;BME280;33272;51.922;7.730;2023-04-26T11:55:27;145544.22;;;12.27;58.66
47530;BME280;33272;51.922;7.730;2023-04-26T11:57:55;145541.69;;;12.26;60.98
47530;BME280;33272;51.922;7.730;2023-04-26T12:00:24;145587.34;;;12.45;61.78
47530;BME280;33272;51.922;7.730;2023-04-26T12:02:53;145610.22;;;12.54;61.35
47530;BME280;33272;51.922;7.730;2023-04-26T12:05:23;145593.72;;;12.47;60.52
47530;BME280;33272;51.922;7.730;2023-04-26T12:07:51;145652.13;;;12.71;61.61
47530;BME280;33272;51.922;7.730;2023-04-26T12:10:24;145673.69;;;12.80;60.86
47530;BME280;33272;51.922;7.730;2023-04-26T12:12:52;145678.78;;;12.82;61.70
47530;BME280;33272;51.922;7.730;2023-04-26T12:15:23;145607.69;;;12.53;59.87
47530;BME280;33272;51.922;7.730;2023-04-26T12:17:58;145633.06;;;12.63;58.95
47530;BME280;33272;51.922;7.730;2023-04-26T12:20:31;145671.16;;;12.79;59.46
47530;BME280;33272;51.922;7.730;2023-04-26T12:23:03;145628.00;;;12.61;53.68
47530;BME280;33272;51.922;7.730;2023-04-26T12:25:32;145603.91;;;12.51;58.31
47530;BME280;33272;51.922;7.730;2023-04-26T12:28:00;145601.31;;;12.50;59.00
47530;BME280;33272;51.922;7.730;2023-04-26T12:30:28;145564.50;;;12.36;58.62
47530;BME280;33272;51.922;7.730;2023-04-26T12:32:57;145542.97;;;12.27;58.00
47530;BME280;33272;51.922;7.730;2023-04-26T12:35:24;145560.72;;;12.34;59.00
47530;BME280;33272;51.922;7.730;2023-04-26T12:37:53;145525.16;;;12.20;58.24
47530;BME280;33272;51.922;7.730;2023-04-26T12:40:22;145541.69;;;12.26;58.18
47530;BME280;33272;51.922;7.730;2023-04-26T12:42:49;145502.34;;;12.11;58.67
47530;BME280;33272;51.922;7.730;2023-04-26T12:45:18;145484.56;;;12.03;58.64
47530;BME280;33272;51.922;7.730;2023-04-26T12:47:45;145394.44;;;11.67;58.16
47530;BME280;33272;51.922;7.730;2023-04-26T12:50:14;145389.34;;;11.65;58.89
47530;BME280;33272;51.922;7.730;2023-04-26T12:52:43;145386.84;;;11.64;59.21
47530;BME280;33272;51.922;7.730;2023-04-26T12:55:12;145323.41;;;11.39;58.54
47530;BME280;33272;51.922;7.730;2023-04-26T12:57:42;145260.03;;;11.13;60.12